PWSweather.com
Personal Weather Stations
Station Observations
MENWDWX1
Menstrie, ScotlandGB

MenstrieScotlandGB

Lat: 56.148322, Lon: -3.85483

Elevation: 62

Station Type: Davis Vantage Pro 2

Latest ConditionsUpdated 3:00:03 PM GMT Monday, Oct 23, 2017
Currently Today's Max Today's Min Today's Average
Temperature 54.4°F12.4°C 54.8°F12.7°C 41.3°F5.2°C 47.6°F8.7°C
Dew Point 50.3°F10.2°C 51.0°F10.6°C 35.9°F2.2°C 43.2°F6.2°C
Winds 3.5 mph SW5.6 kmh SW 6.9 mph E11.1 kmh E - 1.8 mph 2.9 kmh
Wind Gusts 4.6 mph7.4 kmh 10.4 mph16.7 kmh - -
Humidity 86% 88% 79% 85%
Pressure 29.76 in1007.8 mb 29.88 in1011.9 mb 29.76 in1007.8 mb -
Precipitation - 0.07 in1.8 mm - -
Hour Temp Dew Point Humidity Winds Wind Gusts Pressure Precip Precip Rate Daily Precip Total
03:00 PM 54.4°F12.4°C 50.3°F10.2°C 86% 3.5 mph SW5.6 kmh SW 4.6 mph7.4 kmh 29.76 in1007.8 mb - 0.00 in0.0 mm 0.07 in1.8 mm
02:55 PM 54.4°F12.4°C 50.3°F10.2°C 86% 2.3 mph WSW3.7 kmh WSW 4.6 mph7.4 kmh 29.76 in1007.8 mb - 0.00 in0.0 mm 0.07 in1.8 mm
02:50 PM 54.6°F12.6°C 50.5°F10.3°C 86% 4.6 mph WSW7.4 kmh WSW 10.4 mph16.7 kmh 29.76 in1007.8 mb - 0.00 in0.0 mm 0.07 in1.8 mm
02:45 PM 54.7°F12.6°C 50.9°F10.5°C 87% Calm Calm -- 29.76 in1007.8 mb - 0.00 in0.0 mm 0.07 in1.8 mm
02:40 PM 54.7°F12.6°C 50.9°F10.5°C 87% Calm Calm -- 29.76 in1007.8 mb - 0.00 in0.0 mm 0.07 in1.8 mm
02:35 PM 54.7°F12.6°C 50.9°F10.5°C 87% Calm Calm -- 29.76 in1007.8 mb - 0.00 in0.0 mm 0.07 in1.8 mm
02:30 PM 54.7°F12.6°C 50.9°F10.5°C 87% Calm Calm -- 29.76 in1007.8 mb - 0.00 in0.0 mm 0.07 in1.8 mm
02:25 PM 54.8°F12.7°C 51.0°F10.6°C 87% Calm Calm -- 29.76 in1007.8 mb - 0.00 in0.0 mm 0.07 in1.8 mm
02:20 PM 54.7°F12.6°C 50.9°F10.5°C 87% Calm Calm -- 29.76 in1007.8 mb - 0.00 in0.0 mm 0.07 in1.8 mm
02:15 PM 54.7°F12.6°C 50.9°F10.5°C 87% 1.2 mph W1.9 kmh W 1.2 mph1.9 kmh 29.76 in1007.8 mb - 0.00 in0.0 mm 0.07 in1.8 mm
02:10 PM 54.7°F12.6°C 50.9°F10.5°C 87% 1.2 mph W1.9 kmh W 2.3 mph3.7 kmh 29.76 in1007.8 mb - 0.00 in0.0 mm 0.07 in1.8 mm
02:05 PM 54.7°F12.6°C 50.9°F10.5°C 87% 1.2 mph W1.9 kmh W 3.5 mph5.6 kmh 29.76 in1007.8 mb - 0.00 in0.0 mm 0.07 in1.8 mm
02:00 PM 54.7°F12.6°C 50.9°F10.5°C 87% Calm Calm -- 29.76 in1007.8 mb - 0.00 in0.0 mm 0.07 in1.8 mm
01:55 PM 54.6°F12.6°C 50.9°F10.5°C 87% Calm Calm -- 29.76 in1007.8 mb - 0.00 in0.0 mm 0.07 in1.8 mm
01:50 PM 54.6°F12.6°C 50.8°F10.4°C 87% Calm Calm -- 29.76 in1007.8 mb - 0.00 in0.0 mm 0.07 in1.8 mm
01:45 PM 54.6°F12.6°C 50.8°F10.4°C 87% 1.2 mph WNW1.9 kmh WNW 1.2 mph1.9 kmh 29.76 in1007.8 mb - 0.00 in0.0 mm 0.07 in1.8 mm
01:40 PM 54.7°F12.6°C 50.9°F10.5°C 87% 2.3 mph N3.7 kmh N 3.5 mph5.6 kmh 29.76 in1007.8 mb - 0.00 in0.0 mm 0.07 in1.8 mm
01:35 PM 54.7°F12.6°C 50.9°F10.5°C 87% Calm Calm -- 29.76 in1007.8 mb - 0.00 in0.0 mm 0.07 in1.8 mm
01:30 PM 54.6°F12.6°C 50.8°F10.4°C 87% 1.2 mph NNE1.9 kmh NNE 2.3 mph3.7 kmh 29.76 in1007.8 mb - 0.00 in0.0 mm 0.07 in1.8 mm
01:25 PM 54.6°F12.6°C 50.8°F10.4°C 87% Calm Calm -- 29.76 in1007.8 mb - 0.00 in0.0 mm 0.07 in1.8 mm
01:20 PM 54.6°F12.6°C 50.8°F10.4°C 87% Calm Calm -- 29.76 in1007.8 mb - 0.00 in0.0 mm 0.07 in1.8 mm
01:15 PM 54.6°F12.6°C 50.8°F10.4°C 87% Calm Calm -- 29.76 in1007.8 mb - 0.00 in0.0 mm 0.07 in1.8 mm
01:10 PM 54.6°F12.6°C 50.8°F10.4°C 87% 1.2 mph NNE1.9 kmh NNE 2.3 mph3.7 kmh 29.76 in1007.8 mb - 0.00 in0.0 mm 0.07 in1.8 mm
01:05 PM 54.5°F12.5°C 50.7°F10.4°C 87% Calm Calm -- 29.76 in1007.8 mb - 0.00 in0.0 mm 0.07 in1.8 mm
01:00 PM 54.4°F12.4°C 50.6°F10.3°C 87% Calm Calm -- 29.76 in1007.8 mb - 0.00 in0.0 mm 0.07 in1.8 mm
12:55 PM 54.2°F12.3°C 50.4°F10.2°C 87% Calm Calm -- 29.76 in1007.8 mb - 0.00 in0.0 mm 0.07 in1.8 mm
12:50 PM 54.2°F12.3°C 50.4°F10.2°C 87% Calm Calm -- 29.76 in1007.8 mb - 0.00 in0.0 mm 0.07 in1.8 mm
12:45 PM 54.2°F12.3°C 50.4°F10.2°C 87% Calm Calm -- 29.76 in1007.8 mb - 0.00 in0.0 mm 0.07 in1.8 mm
12:40 PM 54.1°F12.3°C 50.3°F10.2°C 87% Calm Calm -- 29.76 in1007.8 mb - 0.00 in0.0 mm 0.07 in1.8 mm
12:35 PM 54.0°F12.2°C 50.2°F10.1°C 87% Calm Calm 1.2 mph1.9 kmh 29.76 in1007.8 mb - 0.00 in0.0 mm 0.07 in1.8 mm
12:30 PM 53.9°F12.2°C 50.2°F10.1°C 87% 2.3 mph NE3.7 kmh NE 2.3 mph3.7 kmh 29.76 in1007.8 mb - 0.01 in0.3 mm 0.07 in1.8 mm
12:25 PM 53.9°F12.2°C 50.1°F10.1°C 87% Calm Calm -- 29.76 in1007.8 mb - 0.00 in0.0 mm 0.06 in1.5 mm
12:20 PM 53.8°F12.1°C 50.0°F10.0°C 87% Calm Calm -- 29.77 in1008.1 mb - 0.00 in0.0 mm 0.06 in1.5 mm
12:15 PM 53.7°F12.1°C 49.9°F9.9°C 87% Calm Calm -- 29.77 in1008.1 mb - 0.00 in0.0 mm 0.06 in1.5 mm
12:10 PM 53.7°F12.1°C 49.9°F9.9°C 87% Calm Calm -- 29.77 in1008.1 mb - 0.00 in0.0 mm 0.06 in1.5 mm
12:05 PM 53.6°F12.0°C 49.8°F9.9°C 87% Calm Calm -- 29.77 in1008.1 mb - 0.01 in0.3 mm 0.06 in1.5 mm
12:00 PM 53.5°F11.9°C 50.0°F10.0°C 88% Calm Calm -- 29.77 in1008.1 mb - 0.00 in0.0 mm 0.05 in1.3 mm
11:55 AM 53.4°F11.9°C 49.6°F9.8°C 87% Calm Calm -- 29.77 in1008.1 mb - 0.00 in0.0 mm 0.05 in1.3 mm
11:50 AM 53.1°F11.7°C 49.3°F9.6°C 87% Calm Calm -- 29.77 in1008.1 mb - 0.00 in0.0 mm 0.05 in1.3 mm
11:45 AM 53.0°F11.7°C 49.2°F9.6°C 87% Calm Calm -- 29.77 in1008.1 mb - 0.00 in0.0 mm 0.05 in1.3 mm
11:40 AM 52.7°F11.5°C 48.9°F9.4°C 87% Calm Calm -- 29.77 in1008.1 mb - 0.00 in0.0 mm 0.05 in1.3 mm
11:35 AM 52.4°F11.3°C 48.6°F9.2°C 87% Calm Calm -- 29.77 in1008.1 mb - 0.00 in0.0 mm 0.05 in1.3 mm
11:30 AM 52.1°F11.2°C 48.3°F9.1°C 87% Calm Calm -- 29.77 in1008.1 mb - 0.00 in0.0 mm 0.05 in1.3 mm
11:25 AM 51.9°F11.1°C 48.2°F9.0°C 87% Calm Calm -- 29.77 in1008.1 mb - 0.00 in0.0 mm 0.05 in1.3 mm
11:20 AM 51.6°F10.9°C 47.9°F8.8°C 87% Calm Calm -- 29.77 in1008.1 mb - 0.00 in0.0 mm 0.05 in1.3 mm
11:15 AM 51.4°F10.8°C 47.7°F8.7°C 87% Calm Calm -- 29.77 in1008.1 mb - 0.00 in0.0 mm 0.05 in1.3 mm
11:10 AM 51.2°F10.7°C 47.5°F8.6°C 87% Calm Calm -- 29.77 in1008.1 mb - 0.00 in0.0 mm 0.05 in1.3 mm
11:05 AM 51.0°F10.6°C 47.3°F8.5°C 87% Calm Calm -- 29.77 in1008.1 mb - 0.00 in0.0 mm 0.05 in1.3 mm
11:00 AM 50.9°F10.5°C 47.2°F8.4°C 87% Calm Calm -- 29.77 in1008.1 mb - 0.00 in0.0 mm 0.05 in1.3 mm
10:55 AM 50.9°F10.5°C 47.1°F8.4°C 87% Calm Calm -- 29.77 in1008.1 mb - 0.00 in0.0 mm 0.05 in1.3 mm
10:50 AM 50.8°F10.4°C 47.1°F8.4°C 87% Calm Calm -- 29.78 in1008.5 mb - 0.00 in0.0 mm 0.05 in1.3 mm
10:45 AM 50.7°F10.4°C 47.0°F8.3°C 87% Calm Calm -- 29.78 in1008.5 mb - 0.00 in0.0 mm 0.05 in1.3 mm
10:40 AM 50.6°F10.3°C 46.9°F8.3°C 87% Calm Calm -- 29.77 in1008.1 mb - 0.00 in0.0 mm 0.05 in1.3 mm
10:35 AM 50.5°F10.3°C 46.8°F8.2°C 87% Calm Calm -- 29.77 in1008.1 mb - 0.00 in0.0 mm 0.05 in1.3 mm
10:30 AM 50.4°F10.2°C 46.7°F8.2°C 87% 1.2 mph NNE1.9 kmh NNE 2.3 mph3.7 kmh 29.77 in1008.1 mb - 0.00 in0.0 mm 0.05 in1.3 mm
10:25 AM 50.3°F10.2°C 46.6°F8.1°C 87% Calm Calm -- 29.78 in1008.5 mb - 0.00 in0.0 mm 0.05 in1.3 mm
10:20 AM 50.3°F10.2°C 46.6°F8.1°C 87% 1.2 mph NNE1.9 kmh NNE 2.3 mph3.7 kmh 29.77 in1008.1 mb - 0.00 in0.0 mm 0.05 in1.3 mm
10:15 AM 50.3°F10.2°C 46.5°F8.1°C 87% Calm Calm 2.3 mph3.7 kmh 29.77 in1008.1 mb - 0.01 in0.3 mm 0.05 in1.3 mm
10:10 AM 50.2°F10.1°C 46.5°F8.1°C 87% Calm Calm 1.2 mph1.9 kmh 29.78 in1008.5 mb - 0.00 in0.0 mm 0.04 in1.0 mm
10:05 AM 50.2°F10.1°C 46.5°F8.1°C 87% Calm Calm -- 29.78 in1008.5 mb - 0.00 in0.0 mm 0.04 in1.0 mm
10:00 AM 50.2°F10.1°C 46.5°F8.1°C 87% Calm Calm 1.2 mph1.9 kmh 29.78 in1008.5 mb - 0.00 in0.0 mm 0.04 in1.0 mm
09:55 AM 50.3°F10.2°C 46.6°F8.1°C 87% Calm Calm 1.2 mph1.9 kmh 29.77 in1008.1 mb - 0.00 in0.0 mm 0.04 in1.0 mm
09:50 AM 50.4°F10.2°C 46.6°F8.1°C 87% 1.2 mph ENE1.9 kmh ENE 3.5 mph5.6 kmh 29.77 in1008.1 mb - 0.00 in0.0 mm 0.04 in1.0 mm
09:45 AM 50.2°F10.1°C 46.5°F8.1°C 87% Calm Calm -- 29.78 in1008.5 mb - 0.00 in0.0 mm 0.04 in1.0 mm
09:40 AM 50.0°F10.0°C 46.3°F7.9°C 87% 1.2 mph ENE1.9 kmh ENE 3.5 mph5.6 kmh 29.78 in1008.5 mb - 0.00 in0.0 mm 0.04 in1.0 mm
09:35 AM 49.8°F9.9°C 46.1°F7.8°C 87% 1.2 mph ENE1.9 kmh ENE 2.3 mph3.7 kmh 29.78 in1008.5 mb - 0.00 in0.0 mm 0.04 in1.0 mm
09:30 AM 49.7°F9.8°C 46.0°F7.8°C 87% Calm Calm 1.2 mph1.9 kmh 29.78 in1008.5 mb - 0.01 in0.3 mm 0.04 in1.0 mm
09:25 AM 49.6°F9.8°C 45.9°F7.7°C 87% 1.2 mph ENE1.9 kmh ENE 2.3 mph3.7 kmh 29.78 in1008.5 mb - 0.00 in0.0 mm 0.03 in0.8 mm
09:20 AM 49.3°F9.6°C 45.6°F7.6°C 87% 2.3 mph NE3.7 kmh NE 4.6 mph7.4 kmh 29.78 in1008.5 mb - 0.00 in0.0 mm 0.03 in0.8 mm
09:15 AM 49.2°F9.6°C 45.5°F7.5°C 87% 2.3 mph E3.7 kmh E 3.5 mph5.6 kmh 29.78 in1008.5 mb - 0.00 in0.0 mm 0.03 in0.8 mm
09:10 AM 49.1°F9.5°C 45.4°F7.4°C 87% 2.3 mph NE3.7 kmh NE 4.6 mph7.4 kmh 29.78 in1008.5 mb - 0.00 in0.0 mm 0.03 in0.8 mm
09:05 AM 48.8°F9.3°C 45.1°F7.3°C 87% 3.5 mph ENE5.6 kmh ENE 3.5 mph5.6 kmh 29.78 in1008.5 mb - 0.00 in0.0 mm 0.03 in0.8 mm
09:00 AM 48.7°F9.3°C 44.7°F7.1°C 86% 3.5 mph E5.6 kmh E 3.5 mph5.6 kmh 29.78 in1008.5 mb - 0.00 in0.0 mm 0.03 in0.8 mm
08:55 AM 48.6°F9.2°C 44.6°F7.0°C 86% 3.5 mph ENE5.6 kmh ENE 3.5 mph5.6 kmh 29.78 in1008.5 mb - 0.00 in0.0 mm 0.03 in0.8 mm
08:50 AM 48.5°F9.2°C 44.8°F7.1°C 87% 1.2 mph E1.9 kmh E 3.5 mph5.6 kmh 29.78 in1008.5 mb - 0.01 in0.3 mm 0.03 in0.8 mm
08:45 AM 48.4°F9.1°C 44.7°F7.1°C 87% 3.5 mph E5.6 kmh E 3.5 mph5.6 kmh 29.78 in1008.5 mb - 0.01 in0.3 mm 0.03 in0.8 mm
08:40 AM 48.2°F9.0°C 44.2°F6.8°C 86% 2.3 mph E3.7 kmh E 3.5 mph5.6 kmh 29.78 in1008.5 mb - 0.00 in0.0 mm 0.03 in0.8 mm
08:35 AM 48.1°F8.9°C 44.1°F6.7°C 86% 2.3 mph ENE3.7 kmh ENE 3.5 mph5.6 kmh 29.79 in1008.8 mb - 0.00 in0.0 mm 0.03 in0.8 mm
08:30 AM 47.8°F8.8°C 43.8°F6.6°C 86% 2.3 mph ENE3.7 kmh ENE 3.5 mph5.6 kmh 29.79 in1008.8 mb - 0.00 in0.0 mm 0.03 in0.8 mm
08:25 AM 47.6°F8.7°C 43.6°F6.4°C 86% 2.3 mph E3.7 kmh E 3.5 mph5.6 kmh 29.79 in1008.8 mb - 0.00 in0.0 mm 0.03 in0.8 mm
08:20 AM 47.2°F8.4°C 43.2°F6.2°C 86% 2.3 mph ENE3.7 kmh ENE 5.8 mph9.3 kmh 29.79 in1008.8 mb - 0.00 in0.0 mm 0.03 in0.8 mm
08:15 AM 47.0°F8.3°C 43.0°F6.1°C 86% 4.6 mph E7.4 kmh E 5.8 mph9.3 kmh 29.79 in1008.8 mb - 0.00 in0.0 mm 0.03 in0.8 mm
08:10 AM 47.0°F8.3°C 43.0°F6.1°C 86% 4.6 mph ENE7.4 kmh ENE 8.1 mph13.0 kmh 29.79 in1008.8 mb - 0.00 in0.0 mm 0.03 in0.8 mm
08:05 AM 46.9°F8.3°C 42.9°F6.1°C 86% 2.3 mph E3.7 kmh E 3.5 mph5.6 kmh 29.79 in1008.8 mb - 0.00 in0.0 mm 0.03 in0.8 mm
08:00 AM 46.9°F8.3°C 42.6°F5.9°C 85% 3.5 mph E5.6 kmh E 3.5 mph5.6 kmh 29.79 in1008.8 mb - 0.01 in0.3 mm 0.03 in0.8 mm
07:55 AM 46.8°F8.2°C 42.5°F5.8°C 85% 4.6 mph ENE7.4 kmh ENE 5.8 mph9.3 kmh 29.79 in1008.8 mb - 0.01 in0.3 mm 0.03 in0.8 mm
07:50 AM 46.7°F8.2°C 42.4°F5.8°C 85% 4.6 mph E7.4 kmh E 4.6 mph7.4 kmh 29.79 in1008.8 mb - 0.00 in0.0 mm 0.02 in0.5 mm
07:45 AM 46.5°F8.1°C 42.2°F5.7°C 85% 6.9 mph E11.1 kmh E 10.4 mph16.7 kmh 29.79 in1008.8 mb - 0.00 in0.0 mm 0.02 in0.5 mm
07:40 AM 46.4°F8.0°C 42.1°F5.6°C 85% 5.8 mph E9.3 kmh E 6.9 mph11.1 kmh 29.80 in1009.1 mb - 0.00 in0.0 mm 0.02 in0.5 mm
07:35 AM 46.4°F8.0°C 42.1°F5.6°C 85% 5.8 mph E9.3 kmh E 8.1 mph13.0 kmh 29.80 in1009.1 mb - 0.00 in0.0 mm 0.02 in0.5 mm
07:30 AM 46.3°F7.9°C 42.1°F5.6°C 85% 1.2 mph NE1.9 kmh NE 4.6 mph7.4 kmh 29.80 in1009.1 mb - 0.00 in0.0 mm 0.02 in0.5 mm
07:25 AM 46.2°F7.9°C 41.9°F5.5°C 85% 4.6 mph ENE7.4 kmh ENE 8.1 mph13.0 kmh 29.80 in1009.1 mb - 0.00 in0.0 mm 0.02 in0.5 mm
07:20 AM 46.2°F7.9°C 41.9°F5.5°C 85% 2.3 mph SSE3.7 kmh SSE 3.5 mph5.6 kmh 29.80 in1009.1 mb - 0.00 in0.0 mm 0.02 in0.5 mm
07:15 AM 46.1°F7.8°C 41.5°F5.3°C 84% 4.6 mph ENE7.4 kmh ENE 4.6 mph7.4 kmh 29.80 in1009.1 mb - 0.00 in0.0 mm 0.02 in0.5 mm
07:10 AM 46.4°F8.0°C 41.8°F5.4°C 84% 4.6 mph E7.4 kmh E 8.1 mph13.0 kmh 29.80 in1009.1 mb - 0.00 in0.0 mm 0.02 in0.5 mm
07:05 AM 46.5°F8.1°C 41.9°F5.5°C 84% 3.5 mph ENE5.6 kmh ENE 3.5 mph5.6 kmh 29.79 in1008.8 mb - 0.00 in0.0 mm 0.02 in0.5 mm
07:00 AM 46.6°F8.1°C 42.0°F5.6°C 84% 5.8 mph E9.3 kmh E 8.1 mph13.0 kmh 29.79 in1008.8 mb - 0.01 in0.3 mm 0.02 in0.5 mm
06:55 AM 46.7°F8.2°C 42.1°F5.6°C 84% 3.5 mph ENE5.6 kmh ENE 5.8 mph9.3 kmh 29.80 in1009.1 mb - 0.01 in0.3 mm 0.02 in0.5 mm
06:50 AM 46.8°F8.2°C 42.2°F5.7°C 84% 1.2 mph E1.9 kmh E 3.5 mph5.6 kmh 29.80 in1009.1 mb - 0.00 in0.0 mm 0.01 in0.3 mm
06:45 AM 46.9°F8.3°C 42.3°F5.7°C 84% 1.2 mph E1.9 kmh E 3.5 mph5.6 kmh 29.80 in1009.1 mb - 0.00 in0.0 mm 0.01 in0.3 mm
06:40 AM 47.1°F8.4°C 42.5°F5.8°C 84% 2.3 mph E3.7 kmh E 3.5 mph5.6 kmh 29.80 in1009.1 mb - 0.00 in0.0 mm 0.01 in0.3 mm
06:35 AM 47.1°F8.4°C 42.5°F5.8°C 84% 2.3 mph E3.7 kmh E 4.6 mph7.4 kmh 29.80 in1009.1 mb - 0.00 in0.0 mm 0.01 in0.3 mm
06:30 AM 47.0°F8.3°C 42.4°F5.8°C 84% 1.2 mph E1.9 kmh E 1.2 mph1.9 kmh 29.80 in1009.1 mb - 0.00 in0.0 mm 0.01 in0.3 mm
06:25 AM 46.9°F8.3°C 42.3°F5.7°C 84% 3.5 mph E5.6 kmh E 6.9 mph11.1 kmh 29.80 in1009.1 mb - 0.00 in0.0 mm 0.01 in0.3 mm
06:20 AM 46.9°F8.3°C 42.3°F5.7°C 84% 1.2 mph ENE1.9 kmh ENE 3.5 mph5.6 kmh 29.80 in1009.1 mb - 0.00 in0.0 mm 0.01 in0.3 mm
06:15 AM 46.9°F8.3°C 42.3°F5.7°C 84% 2.3 mph E3.7 kmh E 4.6 mph7.4 kmh 29.81 in1009.5 mb - 0.00 in0.0 mm 0.01 in0.3 mm
06:10 AM 46.8°F8.2°C 42.5°F5.8°C 85% 3.5 mph E5.6 kmh E 3.5 mph5.6 kmh 29.81 in1009.5 mb - 0.00 in0.0 mm 0.01 in0.3 mm
06:05 AM 46.6°F8.1°C 42.3°F5.7°C 85% 1.2 mph ENE1.9 kmh ENE 3.5 mph5.6 kmh 29.81 in1009.5 mb - 0.00 in0.0 mm 0.01 in0.3 mm
06:00 AM 46.5°F8.1°C 42.2°F5.7°C 85% 2.3 mph ENE3.7 kmh ENE 3.5 mph5.6 kmh 29.81 in1009.5 mb - 0.00 in0.0 mm 0.01 in0.3 mm
05:55 AM 46.5°F8.1°C 42.2°F5.7°C 85% 3.5 mph ESE5.6 kmh ESE 5.8 mph9.3 kmh 29.81 in1009.5 mb - 0.00 in0.0 mm 0.01 in0.3 mm
05:50 AM 46.1°F7.8°C 41.9°F5.5°C 85% 4.6 mph E7.4 kmh E 4.6 mph7.4 kmh 29.81 in1009.5 mb - 0.00 in0.0 mm 0.01 in0.3 mm
05:45 AM 45.6°F7.6°C 41.4°F5.2°C 85% 3.5 mph E5.6 kmh E 5.8 mph9.3 kmh 29.81 in1009.5 mb - 0.00 in0.0 mm 0.01 in0.3 mm
05:40 AM 45.0°F7.2°C 40.8°F4.9°C 85% 4.6 mph E7.4 kmh E 6.9 mph11.1 kmh 29.81 in1009.5 mb - 0.00 in0.0 mm 0.01 in0.3 mm
05:35 AM 44.7°F7.1°C 40.5°F4.7°C 85% 3.5 mph E5.6 kmh E 4.6 mph7.4 kmh 29.82 in1009.8 mb - 0.00 in0.0 mm 0.01 in0.3 mm
05:30 AM 44.5°F6.9°C 40.3°F4.6°C 85% 3.5 mph E5.6 kmh E 3.5 mph5.6 kmh 29.82 in1009.8 mb - 0.00 in0.0 mm 0.01 in0.3 mm
05:25 AM 44.5°F6.9°C 40.3°F4.6°C 85% 4.6 mph E7.4 kmh E 8.1 mph13.0 kmh 29.82 in1009.8 mb - 0.00 in0.0 mm 0.01 in0.3 mm
05:20 AM 44.5°F6.9°C 40.3°F4.6°C 85% 2.3 mph E3.7 kmh E 4.6 mph7.4 kmh 29.82 in1009.8 mb - 0.00 in0.0 mm 0.01 in0.3 mm
05:15 AM 44.4°F6.9°C 40.2°F4.6°C 85% 2.3 mph E3.7 kmh E 3.5 mph5.6 kmh 29.82 in1009.8 mb - 0.00 in0.0 mm 0.01 in0.3 mm
05:10 AM 44.1°F6.7°C 39.9°F4.4°C 85% 5.8 mph E9.3 kmh E 6.9 mph11.1 kmh 29.83 in1010.2 mb - 0.00 in0.0 mm 0.01 in0.3 mm
05:05 AM 43.8°F6.6°C 39.6°F4.2°C 85% 3.5 mph E5.6 kmh E 3.5 mph5.6 kmh 29.83 in1010.2 mb - 0.00 in0.0 mm 0.01 in0.3 mm
05:00 AM 43.8°F6.6°C 39.5°F4.2°C 85% 3.5 mph E5.6 kmh E 4.6 mph7.4 kmh 29.83 in1010.2 mb - 0.00 in0.0 mm 0.01 in0.3 mm
04:55 AM 43.5°F6.4°C 39.0°F3.9°C 84% 3.5 mph E5.6 kmh E 3.5 mph5.6 kmh 29.83 in1010.2 mb - 0.00 in0.0 mm 0.01 in0.3 mm
04:50 AM 43.4°F6.3°C 38.9°F3.8°C 84% 2.3 mph E3.7 kmh E 3.5 mph5.6 kmh 29.83 in1010.2 mb - 0.00 in0.0 mm 0.01 in0.3 mm
04:45 AM 43.3°F6.3°C 38.8°F3.8°C 84% 2.3 mph E3.7 kmh E 3.5 mph5.6 kmh 29.84 in1010.5 mb - 0.00 in0.0 mm 0.01 in0.3 mm
04:40 AM 43.3°F6.3°C 38.8°F3.8°C 84% 1.2 mph E1.9 kmh E 3.5 mph5.6 kmh 29.84 in1010.5 mb - 0.00 in0.0 mm 0.01 in0.3 mm
04:35 AM 43.2°F6.2°C 38.7°F3.7°C 84% 2.3 mph E3.7 kmh E 3.5 mph5.6 kmh 29.84 in1010.5 mb - 0.00 in0.0 mm 0.01 in0.3 mm
04:30 AM 43.1°F6.2°C 38.6°F3.7°C 84% 1.2 mph E1.9 kmh E 2.3 mph3.7 kmh 29.84 in1010.5 mb - 0.00 in0.0 mm 0.01 in0.3 mm
04:25 AM 43.1°F6.2°C 38.3°F3.5°C 83% 3.5 mph E5.6 kmh E 3.5 mph5.6 kmh 29.84 in1010.5 mb - 0.01 in0.3 mm 0.01 in0.3 mm
04:20 AM 43.1°F6.2°C 38.3°F3.5°C 83% 2.3 mph ENE3.7 kmh ENE 3.5 mph5.6 kmh 29.84 in1010.5 mb - 0.00 in0.0 mm 0.00 in0.0 mm
04:15 AM 43.1°F6.2°C 38.2°F3.4°C 83% 3.5 mph E5.6 kmh E 3.5 mph5.6 kmh 29.84 in1010.5 mb - 0.00 in0.0 mm 0.00 in0.0 mm
04:10 AM 43.0°F6.1°C 38.2°F3.4°C 83% 3.5 mph E5.6 kmh E 3.5 mph5.6 kmh 29.84 in1010.5 mb - 0.00 in0.0 mm 0.00 in0.0 mm
04:05 AM 42.9°F6.1°C 37.8°F3.2°C 82% 3.5 mph ENE5.6 kmh ENE 3.5 mph5.6 kmh 29.84 in1010.5 mb - 0.00 in0.0 mm 0.00 in0.0 mm
04:00 AM 42.8°F6.0°C 37.7°F3.2°C 82% 2.3 mph ENE3.7 kmh ENE 3.5 mph5.6 kmh 29.84 in1010.5 mb - 0.00 in0.0 mm 0.00 in0.0 mm
03:55 AM 42.8°F6.0°C 37.7°F3.2°C 82% 2.3 mph ENE3.7 kmh ENE 3.5 mph5.6 kmh 29.84 in1010.5 mb - 0.00 in0.0 mm 0.00 in0.0 mm
03:50 AM 42.8°F6.0°C 37.7°F3.2°C 82% 2.3 mph ENE3.7 kmh ENE 3.5 mph5.6 kmh 29.84 in1010.5 mb - 0.00 in0.0 mm 0.00 in0.0 mm
03:45 AM 42.7°F5.9°C 37.6°F3.1°C 82% 2.3 mph ENE3.7 kmh ENE 3.5 mph5.6 kmh 29.84 in1010.5 mb - 0.00 in0.0 mm 0.00 in0.0 mm
03:40 AM 42.7°F5.9°C 37.6°F3.1°C 82% 3.5 mph ENE5.6 kmh ENE 3.5 mph5.6 kmh 29.85 in1010.8 mb - 0.00 in0.0 mm 0.00 in0.0 mm
03:35 AM 42.6°F5.9°C 37.5°F3.1°C 82% 3.5 mph ENE5.6 kmh ENE 3.5 mph5.6 kmh 29.85 in1010.8 mb - 0.00 in0.0 mm 0.00 in0.0 mm
03:30 AM 42.6°F5.9°C 37.4°F3.0°C 82% 2.3 mph ENE3.7 kmh ENE 3.5 mph5.6 kmh 29.85 in1010.8 mb - 0.00 in0.0 mm 0.00 in0.0 mm
03:25 AM 42.5°F5.8°C 37.4°F3.0°C 82% 1.2 mph ENE1.9 kmh ENE 2.3 mph3.7 kmh 29.85 in1010.8 mb - 0.00 in0.0 mm 0.00 in0.0 mm
03:20 AM 42.5°F5.8°C 37.4°F3.0°C 82% 2.3 mph ENE3.7 kmh ENE 3.5 mph5.6 kmh 29.84 in1010.5 mb - 0.00 in0.0 mm 0.00 in0.0 mm
03:15 AM 42.5°F5.8°C 37.4°F3.0°C 82% 2.3 mph ENE3.7 kmh ENE 3.5 mph5.6 kmh 29.85 in1010.8 mb - 0.00 in0.0 mm 0.00 in0.0 mm
03:10 AM 42.5°F5.8°C 37.4°F3.0°C 82% 2.3 mph ENE3.7 kmh ENE 3.5 mph5.6 kmh 29.85 in1010.8 mb - 0.00 in0.0 mm 0.00 in0.0 mm
03:05 AM 42.5°F5.8°C 37.4°F3.0°C 82% 2.3 mph ENE3.7 kmh ENE 3.5 mph5.6 kmh 29.85 in1010.8 mb - 0.00 in0.0 mm 0.00 in0.0 mm
03:00 AM 42.4°F5.8°C 37.3°F2.9°C 82% 2.3 mph ENE3.7 kmh ENE 3.5 mph5.6 kmh 29.85 in1010.8 mb - 0.00 in0.0 mm 0.00 in0.0 mm
02:55 AM 42.3°F5.7°C 37.2°F2.9°C 82% 2.3 mph ENE3.7 kmh ENE 3.5 mph5.6 kmh 29.85 in1010.8 mb - 0.00 in0.0 mm 0.00 in0.0 mm
02:50 AM 42.3°F5.7°C 36.9°F2.7°C 81% 2.3 mph ENE3.7 kmh ENE 3.5 mph5.6 kmh 29.85 in1010.8 mb - 0.00 in0.0 mm 0.00 in0.0 mm
02:45 AM 42.4°F5.8°C 37.3°F2.9°C 82% 3.5 mph ENE5.6 kmh ENE 4.6 mph7.4 kmh 29.85 in1010.8 mb - 0.00 in0.0 mm 0.00 in0.0 mm
02:40 AM 42.5°F5.8°C 37.4°F3.0°C 82% 2.3 mph E3.7 kmh E 3.5 mph5.6 kmh 29.85 in1010.8 mb - 0.00 in0.0 mm 0.00 in0.0 mm
02:35 AM 42.5°F5.8°C 37.1°F2.8°C 81% 2.3 mph E3.7 kmh E 2.3 mph3.7 kmh 29.85 in1010.8 mb - 0.00 in0.0 mm 0.00 in0.0 mm
02:30 AM 42.6°F5.9°C 37.1°F2.8°C 81% Calm Calm -- 29.86 in1011.2 mb - 0.00 in0.0 mm 0.00 in0.0 mm
02:25 AM 42.6°F5.9°C 37.2°F2.9°C 81% 1.2 mph E1.9 kmh E 2.3 mph3.7 kmh 29.85 in1010.8 mb - 0.00 in0.0 mm 0.00 in0.0 mm
02:20 AM 42.7°F5.9°C 37.3°F2.9°C 81% 2.3 mph E3.7 kmh E 3.5 mph5.6 kmh 29.86 in1011.2 mb - 0.00 in0.0 mm 0.00 in0.0 mm
02:15 AM 42.9°F6.1°C 37.4°F3.0°C 81% 2.3 mph E3.7 kmh E 3.5 mph5.6 kmh 29.86 in1011.2 mb - 0.00 in0.0 mm 0.00 in0.0 mm
02:10 AM 43.0°F6.1°C 37.2°F2.9°C 80% 2.3 mph E3.7 kmh E 3.5 mph5.6 kmh 29.86 in1011.2 mb - 0.00 in0.0 mm 0.00 in0.0 mm
02:05 AM 43.1°F6.2°C 37.3°F2.9°C 80% 2.3 mph E3.7 kmh E 3.5 mph5.6 kmh 29.86 in1011.2 mb - 0.00 in0.0 mm 0.00 in0.0 mm
02:00 AM 43.2°F6.2°C 37.4°F3.0°C 80% 1.2 mph E1.9 kmh E 3.5 mph5.6 kmh 29.86 in1011.2 mb - 0.00 in0.0 mm 0.00 in0.0 mm
01:55 AM 43.2°F6.2°C 37.5°F3.1°C 80% 1.2 mph E1.9 kmh E 2.3 mph3.7 kmh 29.86 in1011.2 mb - 0.00 in0.0 mm 0.00 in0.0 mm
01:50 AM 43.2°F6.2°C 37.4°F3.0°C 80% 1.2 mph E1.9 kmh E 2.3 mph3.7 kmh 29.86 in1011.2 mb - 0.00 in0.0 mm 0.00 in0.0 mm
01:45 AM 43.1°F6.2°C 37.3°F2.9°C 80% 1.2 mph E1.9 kmh E 3.5 mph5.6 kmh 29.87 in1011.5 mb - 0.00 in0.0 mm 0.00 in0.0 mm
01:40 AM 43.0°F6.1°C 36.9°F2.7°C 79% 1.2 mph E1.9 kmh E 2.3 mph3.7 kmh 29.87 in1011.5 mb - 0.00 in0.0 mm 0.00 in0.0 mm
01:35 AM 42.9°F6.1°C 37.1°F2.8°C 80% 2.3 mph E3.7 kmh E 2.3 mph3.7 kmh 29.87 in1011.5 mb - 0.00 in0.0 mm 0.00 in0.0 mm
01:30 AM 42.7°F5.9°C 36.9°F2.7°C 80% 2.3 mph E3.7 kmh E 3.5 mph5.6 kmh 29.87 in1011.5 mb - 0.00 in0.0 mm 0.00 in0.0 mm
01:25 AM 42.6°F5.9°C 36.8°F2.7°C 80% 1.2 mph E1.9 kmh E 3.5 mph5.6 kmh 29.87 in1011.5 mb - 0.00 in0.0 mm 0.00 in0.0 mm
01:20 AM 42.5°F5.8°C 37.0°F2.8°C 81% 1.2 mph E1.9 kmh E 1.2 mph1.9 kmh 29.87 in1011.5 mb - 0.00 in0.0 mm 0.00 in0.0 mm
01:15 AM 42.3°F5.7°C 36.9°F2.7°C 81% 1.2 mph E1.9 kmh E 2.3 mph3.7 kmh 29.87 in1011.5 mb - 0.00 in0.0 mm 0.00 in0.0 mm
01:10 AM 42.2°F5.7°C 36.8°F2.7°C 81% 2.3 mph E3.7 kmh E 2.3 mph3.7 kmh 29.87 in1011.5 mb - 0.00 in0.0 mm 0.00 in0.0 mm
01:05 AM 42.1°F5.6°C 36.7°F2.6°C 81% 1.2 mph E1.9 kmh E 3.5 mph5.6 kmh 29.87 in1011.5 mb - 0.00 in0.0 mm 0.00 in0.0 mm
01:00 AM 42.1°F5.6°C 36.4°F2.4°C 80% Calm Calm 2.3 mph3.7 kmh 29.87 in1011.5 mb - 0.00 in0.0 mm 0.00 in0.0 mm
12:55 AM 42.2°F5.7°C 36.5°F2.5°C 80% 1.2 mph E1.9 kmh E 2.3 mph3.7 kmh 29.88 in1011.9 mb - 0.00 in0.0 mm 0.00 in0.0 mm
12:50 AM 42.2°F5.7°C 36.5°F2.5°C 80% 1.2 mph E1.9 kmh E 2.3 mph3.7 kmh 29.88 in1011.9 mb - 0.00 in0.0 mm 0.00 in0.0 mm
12:45 AM 42.1°F5.6°C 36.4°F2.4°C 80% Calm Calm 1.2 mph1.9 kmh 29.87 in1011.5 mb - 0.00 in0.0 mm 0.00 in0.0 mm
12:40 AM 42.0°F5.6°C 36.3°F2.4°C 80% 2.3 mph E3.7 kmh E 3.5 mph5.6 kmh 29.87 in1011.5 mb - 0.00 in0.0 mm 0.00 in0.0 mm
12:35 AM 41.9°F5.5°C 36.2°F2.3°C 80% 2.3 mph E3.7 kmh E 3.5 mph5.6 kmh 29.88 in1011.9 mb - 0.00 in0.0 mm 0.00 in0.0 mm
12:30 AM 41.7°F5.4°C 36.3°F2.4°C 81% 2.3 mph E3.7 kmh E 3.5 mph5.6 kmh 29.88 in1011.9 mb - 0.00 in0.0 mm 0.00 in0.0 mm
12:25 AM 41.7°F5.4°C 36.3°F2.4°C 81% 1.2 mph E1.9 kmh E 3.5 mph5.6 kmh 29.87 in1011.5 mb - 0.00 in0.0 mm 0.00 in0.0 mm
12:20 AM 41.6°F5.3°C 36.2°F2.3°C 81% 1.2 mph E1.9 kmh E 1.2 mph1.9 kmh 29.87 in1011.5 mb - 0.00 in0.0 mm 0.00 in0.0 mm
12:15 AM 41.5°F5.3°C 36.1°F2.3°C 81% 2.3 mph NE3.7 kmh NE 3.5 mph5.6 kmh 29.87 in1011.5 mb - 0.00 in0.0 mm 0.00 in0.0 mm
12:10 AM 41.4°F5.2°C 36.0°F2.2°C 81% 3.5 mph NE5.6 kmh NE 8.1 mph13.0 kmh 29.87 in1011.5 mb - 0.00 in0.0 mm 0.00 in0.0 mm
12:05 AM 41.4°F5.2°C 36.0°F2.2°C 81% Calm Calm -- 29.87 in1011.5 mb - 0.00 in0.0 mm 0.00 in0.0 mm
12:00 AM 41.3°F5.2°C 35.9°F2.2°C 81% Calm Calm -- 29.88 in1011.9 mb - 0.00 in0.0 mm 0.00 in0.0 mm